createdAt,value
2023-03-01T00:03:22.496Z,104.90
2023-03-01T00:08:34.320Z,100.60
2023-03-01T00:13:46.990Z,95.50
2023-03-01T00:19:03.653Z,103.80
2023-03-01T00:24:38.488Z,108.70
2023-03-01T00:29:41.712Z,102.60
2023-03-01T00:34:55.199Z,100.80
2023-03-01T00:40:15.987Z,101.70
2023-03-01T00:45:32.735Z,93.50
2023-03-01T00:50:46.552Z,87.60
2023-03-01T00:55:49.822Z,89.20
2023-03-01T01:00:59.697Z,87.00
2023-03-01T01:06:10.405Z,88.70
2023-03-01T01:11:37.078Z,82.70
2023-03-01T01:16:46.926Z,89.60
2023-03-01T01:22:10.521Z,97.70
2023-03-01T01:27:13.795Z,90.60
2023-03-01T01:32:30.264Z,83.50
2023-03-01T01:38:23.278Z,80.20
2023-03-01T01:43:55.627Z,75.60
2023-03-01T01:49:33.864Z,77.50
2023-03-01T01:54:51.921Z,84.40
2023-03-01T02:00:59.664Z,78.80
2023-03-01T02:06:24.486Z,74.20
2023-03-01T02:12:31.738Z,78.00
2023-03-01T02:18:00.395Z,90.10
2023-03-01T02:23:06.919Z,81.20
2023-03-01T02:28:34.590Z,77.20
2023-03-01T02:34:09.635Z,74.70
2023-03-01T02:39:46.642Z,77.80
2023-03-01T02:44:55.038Z,74.50
2023-03-01T02:50:08.652Z,77.30
2023-03-01T02:55:32.326Z,71.60
2023-03-01T03:00:52.353Z,79.80
2023-03-01T03:06:06.207Z,77.70
2023-03-01T03:11:19.936Z,83.60
2023-03-01T03:16:23.924Z,88.90
2023-03-01T03:21:28.597Z,93.40
2023-03-01T03:26:44.881Z,87.00
2023-03-01T03:32:33.858Z,85.40
2023-03-01T03:38:01.616Z,78.90
2023-03-01T03:43:19.707Z,83.20
2023-03-01T03:48:27.072Z,80.20
2023-03-01T03:53:30.687Z,77.10
2023-03-01T03:59:23.620Z,88.30
2023-03-01T04:04:56.391Z,83.20
2023-03-01T04:10:53.408Z,79.90
2023-03-01T04:16:20.121Z,80.30
2023-03-01T04:21:51.806Z,80.80
2023-03-01T04:27:35.590Z,81.60
2023-03-01T04:33:31.899Z,75.20
2023-03-01T04:39:46.904Z,78.40
2023-03-01T04:45:02.762Z,78.70
2023-03-01T04:50:24.599Z,84.30
2023-03-01T04:55:50.376Z,80.50
2023-03-01T05:00:54.568Z,78.10
2023-03-01T05:06:31.779Z,75.20
2023-03-01T05:11:55.800Z,73.10
2023-03-01T05:17:18.983Z,70.60
2023-03-01T05:23:08.909Z,74.40
2023-03-01T05:28:55.774Z,72.60
2023-03-01T05:34:07.571Z,69.50
2023-03-01T05:39:42.866Z,75.10
2023-03-01T05:45:14.460Z,71.00
2023-03-01T05:51:10.728Z,72.50
2023-03-01T05:57:25.493Z,75.40
2023-03-01T06:02:40.109Z,80.90
2023-03-01T06:08:15.040Z,83.60
2023-03-01T06:13:51.186Z,81.30
2023-03-01T06:19:14.763Z,80.80
2023-03-01T06:24:18.016Z,79.70
2023-03-01T06:29:21.298Z,78.20
2023-03-01T06:34:33.223Z,73.40
2023-03-01T06:39:36.925Z,61.50
2023-03-01T06:44:40.360Z,64.10
2023-03-01T06:49:46.824Z,67.30
2023-03-01T06:54:50.277Z,66.50
2023-03-01T06:59:53.613Z,62.30
2023-03-01T07:05:01.853Z,64.90
2023-03-01T07:10:06.369Z,61.60
2023-03-01T07:15:11.358Z,67.20
2023-03-01T07:20:26.290Z,63.90
2023-03-01T07:26:01.857Z,66.10
2023-03-01T07:31:10.002Z,64.30
2023-03-01T07:36:13.568Z,73.10
2023-03-01T07:41:19.589Z,64.40
2023-03-01T07:47:03.458Z,66.70
2023-03-01T07:52:23.157Z,61.00
2023-03-01T07:57:52.028Z,57.50
2023-03-01T08:03:18.385Z,56.60
2023-03-01T08:08:27.342Z,61.10
2023-03-01T08:13:34.058Z,55.00
2023-03-01T08:18:40.629Z,61.40
2023-03-01T08:23:45.212Z,60.10
2023-03-01T08:29:09.229Z,50.60
2023-03-01T08:34:15.898Z,52.20
2023-03-01T08:39:20.707Z,48.60
2023-03-01T08:44:24.312Z,50.70
2023-03-01T08:49:27.743Z,52.20
2023-03-01T08:54:31.598Z,53.20
2023-03-01T08:59:38.334Z,53.60
2023-03-01T09:04:51.772Z,47.30
2023-03-01T09:10:03.313Z,50.80
2023-03-01T09:15:27.058Z,47.20
2023-03-01T09:20:32.498Z,48.10
2023-03-01T09:25:46.513Z,36.00
2023-03-01T09:30:49.882Z,46.80
2023-03-01T09:36:04.192Z,39.10
2023-03-01T09:41:47.340Z,36.30
2023-03-01T09:47:17.506Z,43.80
2023-03-01T09:52:59.978Z,45.00
2023-03-01T10:03:44.113Z,37.60
2023-03-01T10:09:01.943Z,38.30
2023-03-01T10:14:16.910Z,43.30
2023-03-01T10:20:15.607Z,35.40
2023-03-01T10:26:05.987Z,32.30
2023-03-01T10:31:16.317Z,34.70
2023-03-01T10:36:33.738Z,35.40
2023-03-01T10:41:52.946Z,35.30
2023-03-01T10:47:28.412Z,34.70
2023-03-01T10:52:59.638Z,39.30
2023-03-01T10:58:20.614Z,36.20
2023-03-01T11:03:28.644Z,38.70
2023-03-01T11:08:38.525Z,35.30
2023-03-01T11:13:53.206Z,32.80
2023-03-01T11:19:14.775Z,30.40
2023-03-01T11:24:26.628Z,32.60
2023-03-01T11:30:02.214Z,27.40
2023-03-01T11:35:37.557Z,30.00
2023-03-01T11:40:56.260Z,27.30
2023-03-01T11:46:11.849Z,30.70
2023-03-01T11:51:46.130Z,28.80
2023-03-01T11:57:16.498Z,28.80
2023-03-01T12:02:54.925Z,25.50
2023-03-01T12:08:30.494Z,29.20
2023-03-01T12:13:45.240Z,29.40
2023-03-01T12:19:23.597Z,32.50
2023-03-01T12:24:34.875Z,27.40
2023-03-01T12:29:59.967Z,32.60
2023-03-01T12:35:34.267Z,29.10
2023-03-01T12:41:20.890Z,26.10
2023-03-01T12:46:48.693Z,31.40
2023-03-01T12:52:34.342Z,25.60
2023-03-01T12:58:22.324Z,26.00
2023-03-01T13:03:57.827Z,23.80
2023-03-01T13:09:19.530Z,27.90
2023-03-01T13:14:24.088Z,30.60
2023-03-01T13:19:36.925Z,30.20
2023-03-01T13:24:42.533Z,30.00
2023-03-01T13:30:02.168Z,32.20
2023-03-01T13:35:21.014Z,29.70
2023-03-01T13:40:27.322Z,29.20
2023-03-01T13:45:42.059Z,33.00
2023-03-01T13:50:52.837Z,32.40
2023-03-01T13:56:18.764Z,24.80
2023-03-01T14:01:26.691Z,30.60
2023-03-01T14:06:33.182Z,30.70
2023-03-01T14:11:39.456Z,27.00
2023-03-01T14:17:04.449Z,32.50
2023-03-01T14:22:34.476Z,29.10
2023-03-01T14:27:43.180Z,33.00
2023-03-01T14:32:54.922Z,34.10
2023-03-01T14:37:58.764Z,28.20
2023-03-01T14:43:11.197Z,30.70
2023-03-01T14:48:15.000Z,34.70
2023-03-01T14:53:21.913Z,30.80
2023-03-01T14:58:26.793Z,32.10
2023-03-01T15:03:40.277Z,31.00
2023-03-01T15:08:48.289Z,29.90
2023-03-01T15:13:53.392Z,35.70
2023-03-01T15:19:08.238Z,27.50
2023-03-01T15:24:13.071Z,29.20
2023-03-01T15:29:21.492Z,28.10
2023-03-01T15:34:29.656Z,26.00
2023-03-01T15:39:55.120Z,27.90
2023-03-01T15:45:21.921Z,28.60
2023-03-01T15:50:27.462Z,26.90
2023-03-01T15:55:34.221Z,27.20
2023-03-01T16:01:00.864Z,29.30
2023-03-01T16:06:13.461Z,32.00
2023-03-01T16:11:20.101Z,27.50
2023-03-01T16:16:23.700Z,27.90
2023-03-01T16:21:27.317Z,34.30
2023-03-01T16:26:34.247Z,32.20
2023-03-01T16:31:40.645Z,28.30
2023-03-01T16:36:44.573Z,29.10
2023-03-01T16:41:50.895Z,29.80
2023-03-01T16:46:59.365Z,32.80
2023-03-01T16:52:03.081Z,34.40
2023-03-01T16:57:31.747Z,36.40
2023-03-01T17:02:35.950Z,45.20
2023-03-01T17:07:40.110Z,39.10
2023-03-01T17:12:43.604Z,37.50
2023-03-01T17:18:00.667Z,35.60
2023-03-01T17:23:10.345Z,35.00
2023-03-01T17:28:14.902Z,37.70
2023-03-01T17:33:21.374Z,38.20
2023-03-01T17:38:28.006Z,42.00
2023-03-01T17:43:35.313Z,40.30
2023-03-01T17:48:39.696Z,42.60
2023-03-01T17:53:48.343Z,44.90
2023-03-01T17:58:57.474Z,47.50
2023-03-01T18:04:34.287Z,39.30
2023-03-01T18:09:57.815Z,47.30
2023-03-01T18:15:04.061Z,46.50
2023-03-01T18:20:10.614Z,43.80
2023-03-01T18:25:16.382Z,46.10
2023-03-01T18:30:22.601Z,50.10
2023-03-01T18:35:26.143Z,52.00
2023-03-01T18:40:32.103Z,67.50
2023-03-01T18:45:38.808Z,69.10
2023-03-01T18:50:42.882Z,70.30
2023-03-01T18:56:01.398Z,76.70
2023-03-01T19:01:08.427Z,75.40
2023-03-01T19:06:36.807Z,70.00
2023-03-01T19:11:42.747Z,75.80
2023-03-01T19:16:46.127Z,81.60
2023-03-01T19:22:20.010Z,83.40
2023-03-01T19:27:26.410Z,82.20
2023-03-01T19:32:41.211Z,79.30
2023-03-01T19:37:44.577Z,78.30
2023-03-01T19:42:58.950Z,74.90
2023-03-01T19:48:02.429Z,79.80
2023-03-01T19:53:26.234Z,77.50
2023-03-01T19:58:31.558Z,74.50
2023-03-01T20:03:35.976Z,80.70
2023-03-01T20:08:45.286Z,77.50
2023-03-01T20:13:50.994Z,74.60
2023-03-01T20:19:01.848Z,83.10
2023-03-01T20:24:24.917Z,86.10
2023-03-01T20:29:28.342Z,80.60
2023-03-01T20:35:02.209Z,78.20
2023-03-01T20:40:06.381Z,74.30
2023-03-01T20:45:20.049Z,79.30
2023-03-01T20:50:23.607Z,81.00
2023-03-01T20:55:26.892Z,84.40
2023-03-01T21:00:43.066Z,86.20
2023-03-01T21:05:58.748Z,82.20
2023-03-01T21:11:07.536Z,84.70
2023-03-01T21:16:32.677Z,82.70
2023-03-01T21:21:38.858Z,80.40
2023-03-01T21:26:53.625Z,77.90
2023-03-01T21:32:27.168Z,83.80
2023-03-01T21:38:31.681Z,81.00
2023-03-01T21:43:47.084Z,81.60
2023-03-01T21:49:24.144Z,81.10
2023-03-01T21:54:55.518Z,81.80
2023-03-01T22:00:39.850Z,86.90
2023-03-01T22:06:06.882Z,73.60
2023-03-01T22:11:32.173Z,80.00
2023-03-01T22:16:51.388Z,80.60
2023-03-01T22:22:36.667Z,90.60
2023-03-01T22:27:47.167Z,89.70
2023-03-01T22:33:00.598Z,90.90
2023-03-01T22:38:10.133Z,90.70
2023-03-01T22:43:13.443Z,101.20
2023-03-01T22:48:19.396Z,96.70
2023-03-01T22:53:22.765Z,92.90
2023-03-01T22:58:26.177Z,91.60
2023-03-01T23:03:29.396Z,92.50
2023-03-01T23:08:35.905Z,90.70
2023-03-01T23:13:50.149Z,82.50
2023-03-01T23:19:16.110Z,82.50
2023-03-01T23:24:44.472Z,83.30
2023-03-01T23:29:48.031Z,86.30
2023-03-01T23:34:53.839Z,83.50
2023-03-01T23:39:57.838Z,83.00
2023-03-01T23:45:01.296Z,86.10
2023-03-01T23:50:24.974Z,86.50
2023-03-01T23:56:49.384Z,86.20
